sensor_id;sensor_type;location;lat;lon;timestamp;P1;durP1;ratioP1;P2;durP2;ratioP2
11604;SDS011;5858;43.076;25.626;2023-03-21T00:01:01;11.70;;;8.60;;
11604;SDS011;5858;43.076;25.626;2023-03-21T00:03:31;15.00;;;9.37;;
11604;SDS011;5858;43.076;25.626;2023-03-21T00:06:03;16.07;;;9.37;;
11604;SDS011;5858;43.076;25.626;2023-03-21T00:08:31;14.87;;;9.23;;
11604;SDS011;5858;43.076;25.626;2023-03-21T00:10:59;13.33;;;9.33;;
11604;SDS011;5858;43.076;25.626;2023-03-21T00:13:28;12.13;;;9.07;;
11604;SDS011;5858;43.076;25.626;2023-03-21T00:15:56;15.00;;;10.43;;
11604;SDS011;5858;43.076;25.626;2023-03-21T00:18:28;15.53;;;9.53;;
11604;SDS011;5858;43.076;25.626;2023-03-21T00:20:57;16.37;;;9.20;;
11604;SDS011;5858;43.076;25.626;2023-03-21T00:23:26;12.23;;;8.53;;
11604;SDS011;5858;43.076;25.626;2023-03-21T00:25:54;11.20;;;8.70;;
11604;SDS011;5858;43.076;25.626;2023-03-21T00:28:21;13.73;;;9.03;;
11604;SDS011;5858;43.076;25.626;2023-03-21T00:30:49;12.10;;;9.50;;
11604;SDS011;5858;43.076;25.626;2023-03-21T00:33:16;12.80;;;8.73;;
11604;SDS011;5858;43.076;25.626;2023-03-21T00:35:49;11.80;;;8.80;;
11604;SDS011;5858;43.076;25.626;2023-03-21T00:38:19;14.90;;;9.13;;
11604;SDS011;5858;43.076;25.626;2023-03-21T00:40:46;16.63;;;8.90;;
11604;SDS011;5858;43.076;25.626;2023-03-21T00:43:14;17.47;;;9.07;;
11604;SDS011;5858;43.076;25.626;2023-03-21T00:45:43;14.80;;;8.70;;
11604;SDS011;5858;43.076;25.626;2023-03-21T00:48:11;13.17;;;9.07;;
11604;SDS011;5858;43.076;25.626;2023-03-21T00:50:39;13.77;;;9.43;;
11604;SDS011;5858;43.076;25.626;2023-03-21T00:53:11;13.73;;;9.20;;
11604;SDS011;5858;43.076;25.626;2023-03-21T00:58:31;17.30;;;9.77;;
11604;SDS011;5858;43.076;25.626;2023-03-21T01:00:59;13.30;;;9.73;;
11604;SDS011;5858;43.076;25.626;2023-03-21T01:03:26;14.37;;;9.57;;
11604;SDS011;5858;43.076;25.626;2023-03-21T01:05:54;13.93;;;9.23;;
11604;SDS011;5858;43.076;25.626;2023-03-21T01:08:32;15.50;;;10.37;;
11604;SDS011;5858;43.076;25.626;2023-03-21T01:11:02;10.80;;;9.10;;
11604;SDS011;5858;43.076;25.626;2023-03-21T01:13:32;14.00;;;8.70;;
11604;SDS011;5858;43.076;25.626;2023-03-21T01:15:59;11.53;;;8.90;;
11604;SDS011;5858;43.076;25.626;2023-03-21T01:18:29;13.00;;;8.77;;
11604;SDS011;5858;43.076;25.626;2023-03-21T01:20:58;13.17;;;7.83;;
11604;SDS011;5858;43.076;25.626;2023-03-21T01:23:27;13.57;;;7.97;;
11604;SDS011;5858;43.076;25.626;2023-03-21T01:25:55;12.10;;;8.40;;
11604;SDS011;5858;43.076;25.626;2023-03-21T01:28:25;12.90;;;8.40;;
11604;SDS011;5858;43.076;25.626;2023-03-21T01:30:54;11.10;;;8.13;;
11604;SDS011;5858;43.076;25.626;2023-03-21T01:33:21;13.20;;;9.30;;
11604;SDS011;5858;43.076;25.626;2023-03-21T01:35:49;15.17;;;9.67;;
11604;SDS011;5858;43.076;25.626;2023-03-21T01:38:16;17.97;;;9.20;;
11604;SDS011;5858;43.076;25.626;2023-03-21T01:40:45;12.23;;;9.07;;
11604;SDS011;5858;43.076;25.626;2023-03-21T01:43:26;12.90;;;9.40;;
11604;SDS011;5858;43.076;25.626;2023-03-21T01:49:03;16.17;;;8.60;;
11604;SDS011;5858;43.076;25.626;2023-03-21T01:51:35;14.20;;;9.30;;
11604;SDS011;5858;43.076;25.626;2023-03-21T01:54:08;13.80;;;9.43;;
11604;SDS011;5858;43.076;25.626;2023-03-21T01:56:39;15.23;;;9.47;;
11604;SDS011;5858;43.076;25.626;2023-03-21T01:59:12;13.40;;;9.13;;
11604;SDS011;5858;43.076;25.626;2023-03-21T02:01:45;12.03;;;8.67;;
11604;SDS011;5858;43.076;25.626;2023-03-21T02:04:14;13.67;;;9.20;;
11604;SDS011;5858;43.076;25.626;2023-03-21T02:06:48;18.27;;;11.23;;
11604;SDS011;5858;43.076;25.626;2023-03-21T02:09:23;15.83;;;10.27;;
11604;SDS011;5858;43.076;25.626;2023-03-21T02:11:53;12.30;;;9.53;;
11604;SDS011;5858;43.076;25.626;2023-03-21T02:14:22;15.30;;;10.10;;
11604;SDS011;5858;43.076;25.626;2023-03-21T02:16:51;16.33;;;10.73;;
11604;SDS011;5858;43.076;25.626;2023-03-21T02:19:40;16.93;;;11.17;;
11604;SDS011;5858;43.076;25.626;2023-03-21T02:25:48;15.90;;;11.23;;
11604;SDS011;5858;43.076;25.626;2023-03-21T02:28:36;18.30;;;11.90;;
11604;SDS011;5858;43.076;25.626;2023-03-21T02:31:17;16.10;;;10.03;;
11604;SDS011;5858;43.076;25.626;2023-03-21T02:33:59;14.23;;;10.27;;
11604;SDS011;5858;43.076;25.626;2023-03-21T02:39:45;17.83;;;9.87;;
11604;SDS011;5858;43.076;25.626;2023-03-21T02:42:21;14.10;;;8.83;;
11604;SDS011;5858;43.076;25.626;2023-03-21T02:44:56;12.70;;;8.70;;
11604;SDS011;5858;43.076;25.626;2023-03-21T02:47:29;12.03;;;9.33;;
11604;SDS011;5858;43.076;25.626;2023-03-21T02:50:02;16.60;;;11.10;;
11604;SDS011;5858;43.076;25.626;2023-03-21T02:52:37;15.10;;;10.73;;
11604;SDS011;5858;43.076;25.626;2023-03-21T02:55:07;20.47;;;12.70;;
11604;SDS011;5858;43.076;25.626;2023-03-21T02:57:43;25.33;;;13.50;;
11604;SDS011;5858;43.076;25.626;2023-03-21T03:00:14;15.27;;;10.67;;
11604;SDS011;5858;43.076;25.626;2023-03-21T03:02:47;16.43;;;10.47;;
11604;SDS011;5858;43.076;25.626;2023-03-21T03:05:16;15.93;;;9.37;;
11604;SDS011;5858;43.076;25.626;2023-03-21T03:10:56;11.03;;;8.50;;
11604;SDS011;5858;43.076;25.626;2023-03-21T03:13:44;10.97;;;8.43;;
11604;SDS011;5858;43.076;25.626;2023-03-21T03:16:23;16.00;;;9.07;;
11604;SDS011;5858;43.076;25.626;2023-03-21T03:19:00;13.77;;;9.87;;
11604;SDS011;5858;43.076;25.626;2023-03-21T03:21:31;14.53;;;9.27;;
11604;SDS011;5858;43.076;25.626;2023-03-21T03:24:07;13.80;;;10.00;;
11604;SDS011;5858;43.076;25.626;2023-03-21T03:26:38;15.33;;;9.70;;
11604;SDS011;5858;43.076;25.626;2023-03-21T03:29:12;13.40;;;9.63;;
11604;SDS011;5858;43.076;25.626;2023-03-21T03:31:42;11.73;;;9.03;;
11604;SDS011;5858;43.076;25.626;2023-03-21T03:34:14;12.10;;;8.43;;
11604;SDS011;5858;43.076;25.626;2023-03-21T03:36:46;14.03;;;10.13;;
11604;SDS011;5858;43.076;25.626;2023-03-21T03:39:21;12.90;;;10.07;;
11604;SDS011;5858;43.076;25.626;2023-03-21T03:41:53;15.50;;;10.70;;
11604;SDS011;5858;43.076;25.626;2023-03-21T03:44:24;14.47;;;9.87;;
11604;SDS011;5858;43.076;25.626;2023-03-21T03:46:54;11.40;;;9.17;;
11604;SDS011;5858;43.076;25.626;2023-03-21T03:49:25;14.47;;;9.43;;
11604;SDS011;5858;43.076;25.626;2023-03-21T03:51:58;11.17;;;9.30;;
11604;SDS011;5858;43.076;25.626;2023-03-21T03:54:31;12.03;;;9.60;;
11604;SDS011;5858;43.076;25.626;2023-03-21T03:57:02;12.67;;;8.90;;
11604;SDS011;5858;43.076;25.626;2023-03-21T03:59:32;12.40;;;8.70;;
11604;SDS011;5858;43.076;25.626;2023-03-21T04:02:01;11.60;;;8.80;;
11604;SDS011;5858;43.076;25.626;2023-03-21T04:04:28;12.37;;;8.70;;
11604;SDS011;5858;43.076;25.626;2023-03-21T04:06:56;12.10;;;9.17;;
11604;SDS011;5858;43.076;25.626;2023-03-21T04:09:24;10.20;;;8.50;;
11604;SDS011;5858;43.076;25.626;2023-03-21T04:11:54;15.97;;;9.60;;
11604;SDS011;5858;43.076;25.626;2023-03-21T04:14:21;14.83;;;9.53;;
11604;SDS011;5858;43.076;25.626;2023-03-21T04:16:49;16.47;;;9.93;;
11604;SDS011;5858;43.076;25.626;2023-03-21T04:19:16;12.80;;;8.97;;
11604;SDS011;5858;43.076;25.626;2023-03-21T04:21:44;16.93;;;10.83;;
11604;SDS011;5858;43.076;25.626;2023-03-21T04:24:15;18.77;;;10.50;;
11604;SDS011;5858;43.076;25.626;2023-03-21T04:26:42;12.37;;;9.73;;
11604;SDS011;5858;43.076;25.626;2023-03-21T04:29:11;14.37;;;9.27;;
11604;SDS011;5858;43.076;25.626;2023-03-21T04:31:38;14.20;;;9.23;;
11604;SDS011;5858;43.076;25.626;2023-03-21T04:34:05;13.60;;;9.50;;
11604;SDS011;5858;43.076;25.626;2023-03-21T04:36:36;13.37;;;9.00;;
11604;SDS011;5858;43.076;25.626;2023-03-21T04:39:07;13.97;;;8.80;;
11604;SDS011;5858;43.076;25.626;2023-03-21T04:41:36;15.50;;;9.37;;
11604;SDS011;5858;43.076;25.626;2023-03-21T04:44:04;14.30;;;8.70;;
11604;SDS011;5858;43.076;25.626;2023-03-21T04:46:33;14.40;;;8.83;;
11604;SDS011;5858;43.076;25.626;2023-03-21T04:49:01;16.53;;;9.77;;
11604;SDS011;5858;43.076;25.626;2023-03-21T04:51:29;15.17;;;9.80;;
11604;SDS011;5858;43.076;25.626;2023-03-21T04:53:56;12.63;;;9.70;;
11604;SDS011;5858;43.076;25.626;2023-03-21T04:56:23;16.17;;;9.60;;
11604;SDS011;5858;43.076;25.626;2023-03-21T04:58:56;17.17;;;9.30;;
11604;SDS011;5858;43.076;25.626;2023-03-21T05:01:24;20.07;;;10.87;;
11604;SDS011;5858;43.076;25.626;2023-03-21T05:03:57;23.70;;;13.20;;
11604;SDS011;5858;43.076;25.626;2023-03-21T05:06:24;18.43;;;11.20;;
11604;SDS011;5858;43.076;25.626;2023-03-21T05:08:52;15.50;;;9.60;;
11604;SDS011;5858;43.076;25.626;2023-03-21T05:11:20;13.07;;;9.83;;
11604;SDS011;5858;43.076;25.626;2023-03-21T05:13:48;17.20;;;10.97;;
11604;SDS011;5858;43.076;25.626;2023-03-21T05:16:16;18.57;;;13.03;;
11604;SDS011;5858;43.076;25.626;2023-03-21T05:18:43;13.27;;;9.90;;
11604;SDS011;5858;43.076;25.626;2023-03-21T05:21:16;14.17;;;10.10;;
11604;SDS011;5858;43.076;25.626;2023-03-21T05:23:50;13.00;;;9.40;;
11604;SDS011;5858;43.076;25.626;2023-03-21T05:26:19;14.03;;;9.97;;
11604;SDS011;5858;43.076;25.626;2023-03-21T05:29:00;17.00;;;10.43;;
11604;SDS011;5858;43.076;25.626;2023-03-21T05:31:28;16.37;;;10.23;;
11604;SDS011;5858;43.076;25.626;2023-03-21T05:33:55;19.60;;;10.30;;
11604;SDS011;5858;43.076;25.626;2023-03-21T05:39:12;17.57;;;11.73;;
11604;SDS011;5858;43.076;25.626;2023-03-21T05:41:39;21.70;;;10.47;;
11604;SDS011;5858;43.076;25.626;2023-03-21T05:44:07;19.77;;;10.60;;
11604;SDS011;5858;43.076;25.626;2023-03-21T05:46:39;19.30;;;11.43;;
11604;SDS011;5858;43.076;25.626;2023-03-21T05:59:00;15.03;;;9.90;;
11604;SDS011;5858;43.076;25.626;2023-03-21T06:01:39;20.47;;;9.87;;
11604;SDS011;5858;43.076;25.626;2023-03-21T06:04:09;35.80;;;13.50;;
11604;SDS011;5858;43.076;25.626;2023-03-21T06:06:39;19.93;;;11.00;;
11604;SDS011;5858;43.076;25.626;2023-03-21T06:09:07;19.70;;;10.03;;
11604;SDS011;5858;43.076;25.626;2023-03-21T06:11:35;15.50;;;9.60;;
11604;SDS011;5858;43.076;25.626;2023-03-21T06:14:06;16.10;;;10.17;;
11604;SDS011;5858;43.076;25.626;2023-03-21T06:16:33;14.80;;;10.60;;
11604;SDS011;5858;43.076;25.626;2023-03-21T06:19:00;13.63;;;8.73;;
11604;SDS011;5858;43.076;25.626;2023-03-21T06:21:28;15.03;;;9.37;;
11604;SDS011;5858;43.076;25.626;2023-03-21T06:23:56;15.60;;;8.57;;
11604;SDS011;5858;43.076;25.626;2023-03-21T06:26:31;19.70;;;9.80;;
11604;SDS011;5858;43.076;25.626;2023-03-21T06:29:01;15.80;;;8.17;;
11604;SDS011;5858;43.076;25.626;2023-03-21T06:31:33;14.30;;;9.50;;
11604;SDS011;5858;43.076;25.626;2023-03-21T06:34:08;17.83;;;11.00;;
11604;SDS011;5858;43.076;25.626;2023-03-21T06:36:52;16.43;;;10.23;;
11604;SDS011;5858;43.076;25.626;2023-03-21T06:39:45;14.87;;;11.07;;
11604;SDS011;5858;43.076;25.626;2023-03-21T06:42:22;20.00;;;9.67;;
11604;SDS011;5858;43.076;25.626;2023-03-21T06:44:54;14.67;;;9.23;;
11604;SDS011;5858;43.076;25.626;2023-03-21T06:47:24;11.67;;;8.23;;
11604;SDS011;5858;43.076;25.626;2023-03-21T06:49:57;12.60;;;8.97;;
11604;SDS011;5858;43.076;25.626;2023-03-21T06:52:49;17.20;;;10.50;;
11604;SDS011;5858;43.076;25.626;2023-03-21T06:55:37;20.47;;;10.80;;
11604;SDS011;5858;43.076;25.626;2023-03-21T06:58:19;19.90;;;9.40;;
11604;SDS011;5858;43.076;25.626;2023-03-21T07:00:58;19.53;;;10.00;;
11604;SDS011;5858;43.076;25.626;2023-03-21T07:03:28;20.50;;;10.43;;
11604;SDS011;5858;43.076;25.626;2023-03-21T07:05:57;17.90;;;11.70;;
11604;SDS011;5858;43.076;25.626;2023-03-21T07:08:24;21.00;;;10.60;;
11604;SDS011;5858;43.076;25.626;2023-03-21T07:10:55;15.60;;;11.33;;
11604;SDS011;5858;43.076;25.626;2023-03-21T07:13:25;24.90;;;12.37;;
11604;SDS011;5858;43.076;25.626;2023-03-21T07:15:52;19.33;;;11.57;;
11604;SDS011;5858;43.076;25.626;2023-03-21T07:18:21;21.03;;;11.60;;
11604;SDS011;5858;43.076;25.626;2023-03-21T07:20:52;22.17;;;12.00;;
11604;SDS011;5858;43.076;25.626;2023-03-21T07:23:19;17.20;;;10.30;;
11604;SDS011;5858;43.076;25.626;2023-03-21T07:25:50;16.93;;;10.30;;
11604;SDS011;5858;43.076;25.626;2023-03-21T07:28:20;17.03;;;10.23;;
11604;SDS011;5858;43.076;25.626;2023-03-21T07:30:51;20.25;;;10.25;;
11604;SDS011;5858;43.076;25.626;2023-03-21T07:33:22;15.63;;;10.50;;
11604;SDS011;5858;43.076;25.626;2023-03-21T07:35:53;20.33;;;10.90;;
11604;SDS011;5858;43.076;25.626;2023-03-21T07:38:23;19.42;;;10.43;;
11604;SDS011;5858;43.076;25.626;2023-03-21T07:40:57;20.65;;;12.98;;
11604;SDS011;5858;43.076;25.626;2023-03-21T07:43:30;21.92;;;15.68;;
11604;SDS011;5858;43.076;25.626;2023-03-21T07:46:07;23.77;;;16.17;;
11604;SDS011;5858;43.076;25.626;2023-03-21T07:48:40;23.88;;;16.25;;
11604;SDS011;5858;43.076;25.626;2023-03-21T07:51:09;23.52;;;15.73;;
11604;SDS011;5858;43.076;25.626;2023-03-21T07:53:37;17.38;;;11.75;;
11604;SDS011;5858;43.076;25.626;2023-03-21T07:56:09;18.70;;;12.68;;
11604;SDS011;5858;43.076;25.626;2023-03-21T07:58:41;14.63;;;10.38;;
11604;SDS011;5858;43.076;25.626;2023-03-21T08:01:09;15.73;;;10.65;;
11604;SDS011;5858;43.076;25.626;2023-03-21T08:03:48;19.45;;;10.98;;
11604;SDS011;5858;43.076;25.626;2023-03-21T08:06:17;13.93;;;8.95;;
11604;SDS011;5858;43.076;25.626;2023-03-21T08:08:44;18.25;;;10.52;;
11604;SDS011;5858;43.076;25.626;2023-03-21T08:11:11;14.88;;;9.35;;
11604;SDS011;5858;43.076;25.626;2023-03-21T08:13:39;13.38;;;8.80;;
11604;SDS011;5858;43.076;25.626;2023-03-21T08:16:11;16.73;;;10.15;;
11604;SDS011;5858;43.076;25.626;2023-03-21T08:18:41;15.30;;;8.40;;
11604;SDS011;5858;43.076;25.626;2023-03-21T08:21:10;11.98;;;8.27;;
11604;SDS011;5858;43.076;25.626;2023-03-21T08:23:40;12.10;;;8.93;;
11604;SDS011;5858;43.076;25.626;2023-03-21T08:26:07;18.55;;;9.75;;
11604;SDS011;5858;43.076;25.626;2023-03-21T08:28:42;11.40;;;7.20;;
11604;SDS011;5858;43.076;25.626;2023-03-21T08:31:11;11.93;;;8.05;;
11604;SDS011;5858;43.076;25.626;2023-03-21T08:33:39;11.60;;;8.13;;
11604;SDS011;5858;43.076;25.626;2023-03-21T08:36:07;10.73;;;8.15;;
11604;SDS011;5858;43.076;25.626;2023-03-21T08:38:34;9.60;;;7.07;;
11604;SDS011;5858;43.076;25.626;2023-03-21T08:41:03;16.73;;;9.35;;
11604;SDS011;5858;43.076;25.626;2023-03-21T08:43:30;9.48;;;7.13;;
11604;SDS011;5858;43.076;25.626;2023-03-21T08:45:59;8.63;;;6.32;;
11604;SDS011;5858;43.076;25.626;2023-03-21T08:48:28;9.68;;;6.55;;
11604;SDS011;5858;43.076;25.626;2023-03-21T08:50:57;8.65;;;6.32;;
11604;SDS011;5858;43.076;25.626;2023-03-21T08:53:25;8.43;;;6.13;;
11604;SDS011;5858;43.076;25.626;2023-03-21T08:55:55;8.40;;;5.88;;
11604;SDS011;5858;43.076;25.626;2023-03-21T08:58:23;7.65;;;5.32;;
11604;SDS011;5858;43.076;25.626;2023-03-21T09:00:51;8.07;;;6.10;;
11604;SDS011;5858;43.076;25.626;2023-03-21T09:03:18;9.13;;;5.47;;
11604;SDS011;5858;43.076;25.626;2023-03-21T09:05:45;7.68;;;5.05;;
11604;SDS011;5858;43.076;25.626;2023-03-21T09:08:14;8.90;;;5.68;;
11604;SDS011;5858;43.076;25.626;2023-03-21T09:10:41;7.78;;;5.40;;
11604;SDS011;5858;43.076;25.626;2023-03-21T09:13:08;7.72;;;5.55;;
11604;SDS011;5858;43.076;25.626;2023-03-21T09:15:37;8.10;;;5.75;;
11604;SDS011;5858;43.076;25.626;2023-03-21T09:18:04;8.43;;;5.80;;
11604;SDS011;5858;43.076;25.626;2023-03-21T09:20:44;6.55;;;5.72;;
11604;SDS011;5858;43.076;25.626;2023-03-21T09:23:12;8.80;;;6.03;;
11604;SDS011;5858;43.076;25.626;2023-03-21T09:25:49;6.88;;;6.00;;
11604;SDS011;5858;43.076;25.626;2023-03-21T09:28:16;7.32;;;5.65;;
11604;SDS011;5858;43.076;25.626;2023-03-21T09:30:47;8.60;;;6.10;;
11604;SDS011;5858;43.076;25.626;2023-03-21T09:33:14;8.60;;;6.18;;
11604;SDS011;5858;43.076;25.626;2023-03-21T09:35:43;10.77;;;6.53;;
11604;SDS011;5858;43.076;25.626;2023-03-21T09:38:10;10.20;;;6.95;;
11604;SDS011;5858;43.076;25.626;2023-03-21T09:40:41;8.23;;;5.72;;
11604;SDS011;5858;43.076;25.626;2023-03-21T09:43:54;8.60;;;6.03;;
11604;SDS011;5858;43.076;25.626;2023-03-21T09:46:39;11.50;;;7.20;;
11604;SDS011;5858;43.076;25.626;2023-03-21T09:49:24;7.68;;;6.65;;
11604;SDS011;5858;43.076;25.626;2023-03-21T09:52:23;8.48;;;6.40;;
11604;SDS011;5858;43.076;25.626;2023-03-21T09:55:02;9.77;;;6.65;;
11604;SDS011;5858;43.076;25.626;2023-03-21T09:57:44;9.27;;;6.78;;
11604;SDS011;5858;43.076;25.626;2023-03-21T10:00:15;9.48;;;7.32;;
11604;SDS011;5858;43.076;25.626;2023-03-21T10:02:52;11.50;;;7.50;;
11604;SDS011;5858;43.076;25.626;2023-03-21T10:05:32;11.25;;;7.10;;
11604;SDS011;5858;43.076;25.626;2023-03-21T10:08:18;8.80;;;6.93;;
11604;SDS011;5858;43.076;25.626;2023-03-21T10:10:48;12.40;;;7.57;;
11604;SDS011;5858;43.076;25.626;2023-03-21T10:13:21;9.82;;;7.75;;
11604;SDS011;5858;43.076;25.626;2023-03-21T10:15:55;10.50;;;7.28;;
11604;SDS011;5858;43.076;25.626;2023-03-21T10:18:29;10.00;;;7.20;;
11604;SDS011;5858;43.076;25.626;2023-03-21T10:21:12;9.85;;;7.47;;
11604;SDS011;5858;43.076;25.626;2023-03-21T10:23:45;10.75;;;7.82;;
11604;SDS011;5858;43.076;25.626;2023-03-21T10:26:13;11.35;;;6.70;;
11604;SDS011;5858;43.076;25.626;2023-03-21T10:28:46;9.57;;;6.63;;
11604;SDS011;5858;43.076;25.626;2023-03-21T10:31:32;7.95;;;6.22;;
11604;SDS011;5858;43.076;25.626;2023-03-21T10:37:09;10.38;;;6.82;;
11604;SDS011;5858;43.076;25.626;2023-03-21T10:43:34;8.18;;;6.43;;
11604;SDS011;5858;43.076;25.626;2023-03-21T10:46:53;8.13;;;6.38;;
11604;SDS011;5858;43.076;25.626;2023-03-21T10:53:31;8.77;;;6.00;;
11604;SDS011;5858;43.076;25.626;2023-03-21T10:56:03;9.52;;;6.72;;
11604;SDS011;5858;43.076;25.626;2023-03-21T10:58:45;8.85;;;5.70;;
11604;SDS011;5858;43.076;25.626;2023-03-21T11:01:24;8.75;;;6.20;;
11604;SDS011;5858;43.076;25.626;2023-03-21T11:04:00;15.30;;;7.60;;
11604;SDS011;5858;43.076;25.626;2023-03-21T11:06:35;10.68;;;6.20;;
11604;SDS011;5858;43.076;25.626;2023-03-21T11:09:08;8.98;;;6.00;;
11604;SDS011;5858;43.076;25.626;2023-03-21T11:11:50;7.35;;;6.00;;
11604;SDS011;5858;43.076;25.626;2023-03-21T11:14:32;7.53;;;5.47;;
11604;SDS011;5858;43.076;25.626;2023-03-21T11:17:06;8.60;;;6.15;;
11604;SDS011;5858;43.076;25.626;2023-03-21T11:19:49;7.43;;;5.95;;
11604;SDS011;5858;43.076;25.626;2023-03-21T11:22:21;10.02;;;6.25;;
11604;SDS011;5858;43.076;25.626;2023-03-21T11:24:59;8.13;;;5.63;;
11604;SDS011;5858;43.076;25.626;2023-03-21T11:27:30;15.45;;;6.30;;
11604;SDS011;5858;43.076;25.626;2023-03-21T11:30:43;7.35;;;6.00;;
11604;SDS011;5858;43.076;25.626;2023-03-21T11:33:50;7.07;;;5.55;;
11604;SDS011;5858;43.076;25.626;2023-03-21T11:36:26;7.28;;;5.57;;
11604;SDS011;5858;43.076;25.626;2023-03-21T11:39:12;7.63;;;6.28;;
11604;SDS011;5858;43.076;25.626;2023-03-21T11:48:12;7.43;;;5.55;;
11604;SDS011;5858;43.076;25.626;2023-03-21T11:50:40;8.80;;;6.07;;
11604;SDS011;5858;43.076;25.626;2023-03-21T11:53:36;8.77;;;5.93;;
11604;SDS011;5858;43.076;25.626;2023-03-21T11:56:18;7.55;;;5.07;;
11604;SDS011;5858;43.076;25.626;2023-03-21T12:02:35;7.25;;;6.18;;
11604;SDS011;5858;43.076;25.626;2023-03-21T12:08:26;9.30;;;5.65;;
11604;SDS011;5858;43.076;25.626;2023-03-21T12:11:16;7.80;;;5.47;;
11604;SDS011;5858;43.076;25.626;2023-03-21T12:14:03;9.82;;;5.43;;
11604;SDS011;5858;43.076;25.626;2023-03-21T12:16:44;6.40;;;5.50;;
11604;SDS011;5858;43.076;25.626;2023-03-21T12:19:38;8.80;;;6.22;;
11604;SDS011;5858;43.076;25.626;2023-03-21T12:22:25;8.10;;;6.07;;
11604;SDS011;5858;43.076;25.626;2023-03-21T12:25:01;10.88;;;5.50;;
11604;SDS011;5858;43.076;25.626;2023-03-21T12:27:48;10.82;;;6.25;;
11604;SDS011;5858;43.076;25.626;2023-03-21T12:30:31;8.00;;;5.93;;
11604;SDS011;5858;43.076;25.626;2023-03-21T12:33:08;8.82;;;5.72;;
11604;SDS011;5858;43.076;25.626;2023-03-21T12:35:51;6.95;;;5.50;;
11604;SDS011;5858;43.076;25.626;2023-03-21T12:38:31;10.07;;;6.47;;
11604;SDS011;5858;43.076;25.626;2023-03-21T12:41:19;7.72;;;5.70;;
11604;SDS011;5858;43.076;25.626;2023-03-21T12:43:52;6.10;;;5.50;;
11604;SDS011;5858;43.076;25.626;2023-03-21T12:46:25;7.93;;;5.57;;
11604;SDS011;5858;43.076;25.626;2023-03-21T12:48:58;7.70;;;5.57;;
11604;SDS011;5858;43.076;25.626;2023-03-21T12:51:31;6.90;;;5.30;;
11604;SDS011;5858;43.076;25.626;2023-03-21T12:54:04;7.40;;;6.15;;
11604;SDS011;5858;43.076;25.626;2023-03-21T12:56:40;7.88;;;6.20;;
11604;SDS011;5858;43.076;25.626;2023-03-21T13:02:09;9.75;;;6.60;;
11604;SDS011;5858;43.076;25.626;2023-03-21T13:04:46;8.85;;;6.57;;
11604;SDS011;5858;43.076;25.626;2023-03-21T13:07:27;7.70;;;6.22;;
11604;SDS011;5858;43.076;25.626;2023-03-21T13:10:00;7.75;;;6.43;;
11604;SDS011;5858;43.076;25.626;2023-03-21T13:12:43;8.02;;;6.70;;
11604;SDS011;5858;43.076;25.626;2023-03-21T13:15:32;8.68;;;6.65;;
11604;SDS011;5858;43.076;25.626;2023-03-21T13:18:17;8.00;;;5.70;;
11604;SDS011;5858;43.076;25.626;2023-03-21T13:21:08;11.60;;;6.60;;
11604;SDS011;5858;43.076;25.626;2023-03-21T13:24:02;9.27;;;6.10;;
11604;SDS011;5858;43.076;25.626;2023-03-21T13:26:33;9.85;;;6.28;;
11604;SDS011;5858;43.076;25.626;2023-03-21T13:29:19;8.68;;;6.40;;
11604;SDS011;5858;43.076;25.626;2023-03-21T13:31:50;8.13;;;6.10;;
11604;SDS011;5858;43.076;25.626;2023-03-21T13:34:30;8.90;;;5.75;;
11604;SDS011;5858;43.076;25.626;2023-03-21T13:36:58;10.75;;;6.53;;
11604;SDS011;5858;43.076;25.626;2023-03-21T13:39:48;13.40;;;6.78;;
11604;SDS011;5858;43.076;25.626;2023-03-21T13:42:20;8.77;;;5.60;;
11604;SDS011;5858;43.076;25.626;2023-03-21T13:44:53;9.10;;;6.70;;
11604;SDS011;5858;43.076;25.626;2023-03-21T13:47:40;8.25;;;7.13;;
11604;SDS011;5858;43.076;25.626;2023-03-21T13:50:24;8.73;;;6.35;;
11604;SDS011;5858;43.076;25.626;2023-03-21T13:56:07;7.60;;;5.82;;
11604;SDS011;5858;43.076;25.626;2023-03-21T13:58:50;11.82;;;6.68;;
11604;SDS011;5858;43.076;25.626;2023-03-21T14:01:32;7.25;;;6.10;;
11604;SDS011;5858;43.076;25.626;2023-03-21T14:04:04;14.13;;;6.75;;
11604;SDS011;5858;43.076;25.626;2023-03-21T14:06:37;11.10;;;6.30;;
11604;SDS011;5858;43.076;25.626;2023-03-21T14:09:11;9.88;;;6.68;;
11604;SDS011;5858;43.076;25.626;2023-03-21T14:11:46;9.55;;;6.25;;
11604;SDS011;5858;43.076;25.626;2023-03-21T14:14:16;8.35;;;6.25;;
11604;SDS011;5858;43.076;25.626;2023-03-21T14:16:45;10.30;;;6.32;;
11604;SDS011;5858;43.076;25.626;2023-03-21T14:19:13;10.60;;;6.07;;
11604;SDS011;5858;43.076;25.626;2023-03-21T14:21:45;12.18;;;6.40;;
11604;SDS011;5858;43.076;25.626;2023-03-21T14:24:16;10.15;;;6.72;;
11604;SDS011;5858;43.076;25.626;2023-03-21T14:26:45;10.85;;;6.30;;
11604;SDS011;5858;43.076;25.626;2023-03-21T14:29:19;12.00;;;6.55;;
11604;SDS011;5858;43.076;25.626;2023-03-21T14:31:49;9.82;;;6.82;;
11604;SDS011;5858;43.076;25.626;2023-03-21T14:34:16;8.07;;;6.68;;
11604;SDS011;5858;43.076;25.626;2023-03-21T14:36:44;9.50;;;6.25;;
11604;SDS011;5858;43.076;25.626;2023-03-21T14:39:13;8.63;;;6.13;;
11604;SDS011;5858;43.076;25.626;2023-03-21T14:41:43;8.55;;;6.05;;
11604;SDS011;5858;43.076;25.626;2023-03-21T14:44:15;9.13;;;6.95;;
11604;SDS011;5858;43.076;25.626;2023-03-21T14:46:50;10.65;;;5.85;;
11604;SDS011;5858;43.076;25.626;2023-03-21T14:49:20;6.57;;;4.93;;
11604;SDS011;5858;43.076;25.626;2023-03-21T14:51:50;7.53;;;5.30;;
11604;SDS011;5858;43.076;25.626;2023-03-21T14:54:20;10.20;;;5.78;;
11604;SDS011;5858;43.076;25.626;2023-03-21T14:56:49;6.75;;;4.88;;
11604;SDS011;5858;43.076;25.626;2023-03-21T14:59:22;7.35;;;5.47;;
11604;SDS011;5858;43.076;25.626;2023-03-21T15:01:53;7.53;;;5.75;;
11604;SDS011;5858;43.076;25.626;2023-03-21T15:04:20;10.55;;;5.70;;
11604;SDS011;5858;43.076;25.626;2023-03-21T15:06:52;10.80;;;6.03;;
11604;SDS011;5858;43.076;25.626;2023-03-21T15:09:22;7.82;;;6.18;;
11604;SDS011;5858;43.076;25.626;2023-03-21T15:11:53;10.40;;;5.75;;
11604;SDS011;5858;43.076;25.626;2023-03-21T15:14:24;9.40;;;5.80;;
11604;SDS011;5858;43.076;25.626;2023-03-21T15:16:56;11.95;;;6.07;;
11604;SDS011;5858;43.076;25.626;2023-03-21T15:19:30;10.77;;;5.80;;
11604;SDS011;5858;43.076;25.626;2023-03-21T15:22:01;10.02;;;6.22;;
11604;SDS011;5858;43.076;25.626;2023-03-21T15:24:41;11.25;;;6.13;;
11604;SDS011;5858;43.076;25.626;2023-03-21T15:27:13;14.48;;;6.90;;
11604;SDS011;5858;43.076;25.626;2023-03-21T15:29:43;17.98;;;9.38;;
11604;SDS011;5858;43.076;25.626;2023-03-21T15:32:14;41.75;;;20.65;;
11604;SDS011;5858;43.076;25.626;2023-03-21T15:34:48;26.33;;;12.82;;
11604;SDS011;5858;43.076;25.626;2023-03-21T15:37:20;21.40;;;11.35;;
11604;SDS011;5858;43.076;25.626;2023-03-21T15:39:48;17.38;;;10.73;;
11604;SDS011;5858;43.076;25.626;2023-03-21T15:42:23;14.48;;;7.32;;
11604;SDS011;5858;43.076;25.626;2023-03-21T15:45:02;11.65;;;7.18;;
11604;SDS011;5858;43.076;25.626;2023-03-21T15:47:41;11.45;;;7.85;;
11604;SDS011;5858;43.076;25.626;2023-03-21T15:50:20;13.45;;;7.68;;
11604;SDS011;5858;43.076;25.626;2023-03-21T15:52:51;11.45;;;7.75;;
11604;SDS011;5858;43.076;25.626;2023-03-21T15:55:20;12.85;;;7.43;;
11604;SDS011;5858;43.076;25.626;2023-03-21T15:57:58;8.10;;;6.63;;
11604;SDS011;5858;43.076;25.626;2023-03-21T16:00:32;12.00;;;6.97;;
11604;SDS011;5858;43.076;25.626;2023-03-21T16:03:04;16.08;;;7.35;;
11604;SDS011;5858;43.076;25.626;2023-03-21T16:05:35;8.77;;;7.13;;
11604;SDS011;5858;43.076;25.626;2023-03-21T16:08:03;9.73;;;7.47;;
11604;SDS011;5858;43.076;25.626;2023-03-21T16:10:33;13.15;;;7.75;;